Terminal Aerodrome Forecast
Issued by NWS Cleveland, OH

Home | Current Version | Previous Version | Text Only | Print | Product List | Glossary Off
Versions: 1 2 3 4 5 6 7 8 9 10 11 12 13 14 15 16 17 18 19 20 21 22 23 24

096
FTUS41 KCLE 190525
TAFCLE
TAF
KCLE 190525Z 1906/2012 24008KT P6SM SCT250
     FM191200 28007KT P6SM BKN250
     FM192100 32004KT P6SM SCT250
     FM200200 04004KT P6SM SCT250=

USA.gov is the U.S. government's official web portal to all federal, state and local government web resources and services.